Time;durP1;ratioP1;P1;durP2;ratioP2;P2;SDS_P1;SDS_P2;PMS_P1;PMS_P2;Temp;Humidity;BMP_temperature;BMP_pressure;BME280_temperature;BME280_humidity;BME280_pressure;Samples;Min_cycle;Max_cycle;Signal;HPM_P1;HPM_P2
2023/05/03 00:01:35;;;;;;;2.75;1.00;;;18.50;50.90;;;;;;5041512;28;45340;-71
2023/05/03 00:04:05;;;;;;;1.30;0.70;;;18.50;51.10;;;;;;5041250;28;45370;-71
2023/05/03 00:06:31;;;;;;;2.05;1.20;;;18.50;50.90;;;;;;5041206;27;45241;-71
2023/05/03 00:08:58;;;;;;;2.45;0.82;;;18.50;51.20;;;;;;5041020;27;45332;-71
2023/05/03 00:11:25;;;;;;;1.00;0.70;;;18.50;50.70;;;;;;5041215;28;45380;-72
2023/05/03 00:13:52;;;;;;;1.60;0.80;;;18.50;50.30;;;;;;5041487;28;45327;-71
2023/05/03 00:16:19;;;;;;;1.55;0.80;;;18.50;50.30;;;;;;5040999;27;45342;-71
2023/05/03 00:18:46;;;;;;;1.30;0.90;;;18.50;50.30;;;;;;5040457;28;48201;-71
2023/05/03 00:21:14;;;;;;;1.30;0.90;;;18.50;50.20;;;;;;5040873;28;45244;-71
2023/05/03 00:23:41;;;;;;;2.25;1.15;;;18.50;49.90;;;;;;5041248;28;45337;-71
2023/05/03 00:26:08;;;;;;;2.35;1.08;;;18.50;50.00;;;;;;5040864;27;45233;-71
2023/05/03 00:28:34;;;;;;;0.88;0.73;;;18.50;50.00;;;;;;5040660;27;46631;-71
2023/05/03 00:31:08;;;;;;;1.50;0.80;;;18.50;50.00;;;;;;5040805;28;45362;-71
2023/05/03 00:33:35;;;;;;;2.08;0.93;;;18.50;49.70;;;;;;5040908;28;45195;-71
2023/05/03 00:36:08;;;;;;;2.42;0.95;;;18.50;50.00;;;;;;5040775;28;45560;-71
2023/05/03 00:38:36;;;;;;;0.88;0.70;;;18.50;50.20;;;;;;5040870;28;46640;-71
2023/05/03 00:41:03;;;;;;;1.52;1.00;;;18.50;50.50;;;;;;5040506;27;45382;-71
2023/05/03 00:43:30;;;;;;;1.67;0.70;;;18.50;50.40;;;;;;5041012;28;45252;-71
2023/05/03 00:45:58;;;;;;;1.40;0.90;;;18.50;50.50;;;;;;5040074;28;45280;-71
2023/05/03 00:48:25;;;;;;;1.10;0.80;;;18.50;50.70;;;;;;5040489;28;46327;-71
2023/05/03 00:50:53;;;;;;;1.42;0.90;;;18.50;50.70;;;;;;5039886;28;45351;-71
2023/05/03 00:53:21;;;;;;;0.70;0.70;;;18.50;50.50;;;;;;5040712;28;45398;-71
2023/05/03 00:55:53;;;;;;;2.10;1.00;;;18.50;50.30;;;;;;5039921;28;45560;-71
2023/05/03 00:58:20;;;;;;;2.00;0.80;;;18.50;50.00;;;;;;5024128;28;47214;-71
2023/05/03 01:00:47;;;;;;;1.83;1.08;;;18.50;50.00;;;;;;5040155;27;45365;-71
2023/05/03 01:03:14;;;;;;;2.63;0.90;;;18.50;50.00;;;;;;5043651;28;45256;-71
2023/05/03 01:05:56;;;;;;;1.17;0.70;;;18.50;49.60;;;;;;5043155;27;45426;-72
2023/05/03 01:08:31;;;;;;;1.80;1.00;;;18.40;49.50;;;;;;5035616;28;46362;-71
2023/05/03 01:11:04;;;;;;;2.17;0.90;;;18.40;49.60;;;;;;5043370;28;45421;-71
2023/05/03 01:13:41;;;;;;;1.48;0.82;;;18.50;49.60;;;;;;5043641;28;45332;-72
2023/05/03 01:16:13;;;;;;;1.77;0.93;;;18.40;49.40;;;;;;5043908;28;45415;-71
2023/05/03 01:18:45;;;;;;;2.40;0.98;;;18.40;49.60;;;;;;5037982;28;48529;-71
2023/05/03 01:21:16;;;;;;;1.05;0.93;;;18.50;49.90;;;;;;5043183;28;45662;-71
2023/05/03 01:23:50;;;;;;;2.88;1.25;;;18.50;50.00;;;;;;5043761;28;45417;-71
2023/05/03 01:26:23;;;;;;;1.15;0.95;;;18.50;50.10;;;;;;5042802;27;45316;-71
2023/05/03 01:28:49;;;;;;;1.70;0.98;;;18.50;50.30;;;;;;5043095;28;48048;-71
2023/05/03 01:31:23;;;;;;;1.77;1.00;;;18.50;50.10;;;;;;5043438;28;45327;-71
2023/05/03 01:33:59;;;;;;;1.77;1.02;;;18.40;50.40;;;;;;5038383;28;45379;-71
2023/05/03 01:36:31;;;;;;;1.73;1.00;;;18.50;50.40;;;;;;5036325;28;45481;-71
2023/05/03 01:38:59;;;;;;;1.02;0.90;;;18.50;49.70;;;;;;5042992;28;47230;-71
2023/05/03 01:41:28;;;;;;;3.75;1.00;;;18.50;49.50;;;;;;5043286;28;45316;-71
2023/05/03 01:43:56;;;;;;;2.95;1.08;;;18.50;49.70;;;;;;5043234;28;45262;-71
2023/05/03 01:46:23;;;;;;;1.65;0.95;;;18.50;49.50;;;;;;5042418;28;45565;-71
2023/05/03 01:48:50;;;;;;;2.90;1.00;;;18.40;49.20;;;;;;5042728;28;47220;-71
2023/05/03 01:51:17;;;;;;;1.40;0.80;;;18.40;49.40;;;;;;5040827;28;45401;-71
2023/05/03 01:53:43;;;;;;;2.13;1.13;;;18.40;49.10;;;;;;5043136;28;45353;-71
2023/05/03 01:56:10;;;;;;;1.25;0.60;;;18.40;49.20;;;;;;5042924;28;45411;-71
2023/05/03 01:58:38;;;;;;;2.15;1.00;;;18.40;48.90;;;;;;5042791;28;45294;-71
2023/05/03 02:01:06;;;;;;;1.80;1.20;;;18.40;48.90;;;;;;5042662;28;45528;-72
2023/05/03 02:03:33;;;;;;;1.02;0.93;;;18.40;48.90;;;;;;5043345;28;45355;-71
2023/05/03 02:06:00;;;;;;;2.90;0.98;;;18.50;49.50;;;;;;5042873;28;45418;-71
2023/05/03 02:08:27;;;;;;;2.30;1.38;;;18.50;49.60;;;;;;5042391;27;46277;-71
2023/05/03 02:10:54;;;;;;;1.42;1.15;;;18.50;49.70;;;;;;5042896;28;45289;-71
2023/05/03 02:13:20;;;;;;;1.30;0.80;;;18.40;49.80;;;;;;5041515;28;45236;-71
2023/05/03 02:15:48;;;;;;;1.58;1.05;;;18.40;50.00;;;;;;5042594;28;45529;-71
2023/05/03 02:18:17;;;;;;;3.08;1.38;;;18.40;49.90;;;;;;5042385;28;48372;-71
2023/05/03 02:20:45;;;;;;;1.42;1.00;;;18.40;49.90;;;;;;5042512;28;45179;-71
2023/05/03 02:23:12;;;;;;;3.08;1.13;;;18.40;49.40;;;;;;5042674;28;45248;-71
2023/05/03 02:25:39;;;;;;;1.20;0.75;;;18.40;49.30;;;;;;5030163;28;45400;-71
2023/05/03 02:28:06;;;;;;;2.95;1.17;;;18.40;49.20;;;;;;5024124;28;47590;-71
2023/05/03 02:30:34;;;;;;;2.30;1.05;;;18.40;49.10;;;;;;5042246;28;45409;-71
2023/05/03 02:33:02;;;;;;;1.95;0.90;;;18.40;48.90;;;;;;5042520;28;45334;-71
2023/05/03 02:35:29;;;;;;;2.20;1.10;;;18.40;49.00;;;;;;5042064;28;45399;-71
2023/05/03 02:37:56;;;;;;;2.78;1.00;;;18.40;49.10;;;;;;5042267;28;47342;-72
2023/05/03 02:40:23;;;;;;;2.30;1.02;;;18.40;48.90;;;;;;5042280;28;45151;-71
2023/05/03 02:42:49;;;;;;;1.65;0.90;;;18.40;50.10;;;;;;5042270;27;45272;-71
2023/05/03 02:45:16;;;;;;;2.08;1.27;;;18.40;48.80;;;;;;5041566;28;45255;-71
2023/05/03 02:47:43;;;;;;;3.65;1.27;;;18.30;49.20;;;;;;5042016;28;46539;-71
2023/05/03 02:50:11;;;;;;;2.03;0.98;;;18.30;49.40;;;;;;5041239;28;45310;-73
2023/05/03 02:52:38;;;;;;;5.97;1.40;;;18.30;49.90;;;;;;5042325;28;45358;-71
2023/05/03 02:55:06;;;;;;;2.17;1.20;;;18.30;49.80;;;;;;5040087;28;45535;-72
2023/05/03 02:57:33;;;;;;;1.90;1.00;;;18.30;50.00;;;;;;5042097;28;45417;-71
2023/05/03 02:59:59;;;;;;;1.60;0.82;;;18.30;50.20;;;;;;5027578;28;45399;-72
2023/05/03 03:02:26;;;;;;;1.08;0.93;;;18.40;50.10;;;;;;5042294;28;45442;-71
2023/05/03 03:04:53;;;;;;;1.42;0.95;;;18.30;49.40;;;;;;5041857;27;45216;-71
2023/05/03 03:07:21;;;;;;;1.92;1.10;;;18.30;49.60;;;;;;5041776;28;46881;-72
2023/05/03 03:09:48;;;;;;;1.95;1.20;;;18.30;49.40;;;;;;5041892;28;45320;-71
2023/05/03 03:12:15;;;;;;;2.25;1.15;;;18.30;49.50;;;;;;5041918;28;45452;-72
2023/05/03 03:14:44;;;;;;;1.90;1.08;;;18.30;49.10;;;;;;5041854;28;45365;-71
2023/05/03 03:17:11;;;;;;;2.45;1.10;;;18.30;49.30;;;;;;5035415;28;48248;-71
2023/05/03 03:19:38;;;;;;;2.22;1.10;;;18.30;49.50;;;;;;5041967;28;45306;-71
2023/05/03 03:22:05;;;;;;;1.95;1.23;;;18.30;49.60;;;;;;5041989;28;45396;-71
2023/05/03 03:24:33;;;;;;;1.85;1.25;;;18.30;49.10;;;;;;5041521;28;45299;-72
2023/05/03 03:27:00;;;;;;;2.90;1.48;;;18.30;49.20;;;;;;5041741;28;46491;-72
2023/05/03 03:29:29;;;;;;;1.73;1.00;;;18.30;49.20;;;;;;5041304;28;45668;-71
2023/05/03 03:31:56;;;;;;;1.98;1.10;;;18.30;49.60;;;;;;5041826;28;45273;-71
2023/05/03 03:34:23;;;;;;;2.40;1.15;;;18.30;49.90;;;;;;5041983;28;45412;-71
2023/05/03 03:36:50;;;;;;;3.88;1.17;;;18.30;49.90;;;;;;5041113;27;46308;-71
2023/05/03 03:39:16;;;;;;;1.67;1.10;;;18.30;49.90;;;;;;5041503;28;45374;-71
2023/05/03 03:41:45;;;;;;;1.63;0.90;;;18.30;50.00;;;;;;5037079;28;45245;-71
2023/05/03 03:44:11;;;;;;;2.97;1.05;;;18.30;50.00;;;;;;5041800;28;45367;-72
2023/05/03 03:46:38;;;;;;;1.38;1.10;;;18.30;50.00;;;;;;5040413;28;47150;-71
2023/05/03 03:49:05;;;;;;;2.47;1.08;;;18.30;49.90;;;;;;5041242;27;45306;-71
2023/05/03 03:51:32;;;;;;;2.55;1.30;;;18.30;49.30;;;;;;5041277;28;45358;-71
2023/05/03 03:53:59;;;;;;;3.72;1.23;;;18.30;49.50;;;;;;5041963;28;45382;-71
2023/05/03 03:56:25;;;;;;;2.20;1.38;;;18.30;49.50;;;;;;5041558;28;47657;-73
2023/05/03 03:58:53;;;;;;;3.38;1.38;;;18.30;49.00;;;;;;5041321;28;45550;-71
2023/05/03 04:01:20;;;;;;;2.15;1.15;;;18.30;49.20;;;;;;5040556;28;45205;-71
2023/05/03 04:03:47;;;;;;;1.95;1.15;;;18.30;49.10;;;;;;5041588;28;45680;-71
2023/05/03 04:06:14;;;;;;;2.22;1.15;;;18.30;49.00;;;;;;5040833;28;48490;-71
2023/05/03 04:08:41;;;;;;;4.80;1.15;;;18.30;48.80;;;;;;5041832;28;45259;-71
2023/05/03 04:11:11;;;;;;;1.23;1.00;;;18.30;49.00;;;;;;5041405;28;45169;-71
2023/05/03 04:13:38;;;;;;;2.22;1.23;;;18.30;49.00;;;;;;5041369;28;45519;-72
2023/05/03 04:16:07;;;;;;;1.38;1.00;;;18.30;49.20;;;;;;5032927;28;47324;-71
2023/05/03 04:18:33;;;;;;;2.08;1.30;;;18.30;49.50;;;;;;5021416;28;45275;-71
2023/05/03 04:21:00;;;;;;;1.50;0.90;;;18.30;49.50;;;;;;5038894;28;45202;-71
2023/05/03 04:23:27;;;;;;;1.88;1.10;;;18.30;49.80;;;;;;5041374;28;45468;-71
2023/05/03 04:25:56;;;;;;;2.08;0.88;;;18.30;49.60;;;;;;5040232;27;46285;-71
2023/05/03 04:28:23;;;;;;;2.78;1.30;;;18.30;49.60;;;;;;5041200;28;45194;-71
2023/05/03 04:30:50;;;;;;;2.75;1.05;;;18.30;49.70;;;;;;5041319;28;45355;-72
2023/05/03 04:33:18;;;;;;;2.28;1.02;;;18.30;50.50;;;;;;5041575;28;45322;-72
2023/05/03 04:35:48;;;;;;;5.15;1.30;;;18.30;49.40;;;;;;5040289;28;46390;-71
2023/05/03 04:38:16;;;;;;;3.80;1.30;;;18.30;49.20;;;;;;5044270;28;45197;-71
2023/05/03 04:40:42;;;;;;;2.40;1.20;;;18.30;48.90;;;;;;5044080;28;45329;-72
2023/05/03 04:43:10;;;;;;;2.25;1.05;;;18.30;49.20;;;;;;5043701;28;45405;-72
2023/05/03 04:45:37;;;;;;;2.40;1.20;;;18.30;49.00;;;;;;5043578;28;48247;-71
2023/05/03 04:48:05;;;;;;;3.28;1.30;;;18.30;48.80;;;;;;5043798;28;45832;-72
2023/05/03 04:50:33;;;;;;;1.77;1.20;;;18.30;48.80;;;;;;5043736;28;45189;-71
2023/05/03 04:53:00;;;;;;;2.58;1.27;;;18.30;48.70;;;;;;5043780;28;45342;-71
2023/05/03 04:55:27;;;;;;;1.90;1.10;;;18.30;48.80;;;;;;5043545;28;46617;-71
2023/05/03 04:57:55;;;;;;;1.42;1.00;;;18.30;48.90;;;;;;5043675;27;45386;-71
2023/05/03 05:00:22;;;;;;;2.30;1.00;;;18.30;49.10;;;;;;5030284;28;45384;-71
2023/05/03 05:02:49;;;;;;;1.25;1.00;;;18.30;49.40;;;;;;5043865;28;45243;-72
2023/05/03 05:05:15;;;;;;;2.17;1.05;;;18.30;49.50;;;;;;5042894;28;47549;-71
2023/05/03 05:07:44;;;;;;;1.23;1.02;;;18.30;49.50;;;;;;5043379;28;45587;-71
2023/05/03 05:10:11;;;;;;;2.72;1.10;;;18.30;49.50;;;;;;5043462;28;45284;-71
2023/05/03 05:12:37;;;;;;;2.60;1.08;;;18.30;49.60;;;;;;5043626;28;45342;-71
2023/05/03 05:15:05;;;;;;;1.02;0.93;;;18.30;49.30;;;;;;5036815;28;46069;-71
2023/05/03 05:17:32;;;;;;;1.95;1.05;;;18.30;49.00;;;;;;5043305;28;45304;-71
2023/05/03 05:19:59;;;;;;;1.38;0.88;;;18.30;49.00;;;;;;5043566;28;45270;-72
2023/05/03 05:22:26;;;;;;;1.55;1.05;;;18.30;48.90;;;;;;5043527;28;45510;-72
2023/05/03 05:24:54;;;;;;;3.47;1.30;;;18.30;48.70;;;;;;5042857;27;45314;-71
2023/05/03 05:27:20;;;;;;;3.65;1.40;;;18.30;48.80;;;;;;5035377;28;45232;-72
2023/05/03 05:29:47;;;;;;;1.83;1.40;;;18.30;48.60;;;;;;5043240;28;45194;-71
2023/05/03 05:32:14;;;;;;;2.50;1.25;;;18.30;48.60;;;;;;5043379;28;45166;-71
2023/05/03 05:34:41;;;;;;;2.42;1.02;;;18.30;48.50;;;;;;5042569;28;47984;-71
2023/05/03 05:37:07;;;;;;;2.03;1.05;;;18.30;48.40;;;;;;5042858;27;46680;-71
2023/05/03 05:39:34;;;;;;;1.83;1.10;;;18.30;48.30;;;;;;5043163;28;45422;-71
2023/05/03 05:42:03;;;;;;;1.63;1.20;;;18.30;48.80;;;;;;5042988;28;45753;-72
2023/05/03 05:44:30;;;;;;;1.98;1.20;;;18.30;48.80;;;;;;5042705;28;46337;-71
2023/05/03 05:46:57;;;;;;;2.20;1.10;;;18.30;49.20;;;;;;5042111;28;45874;-71
2023/05/03 05:49:24;;;;;;;3.15;1.13;;;18.30;49.00;;;;;;5042803;28;45284;-71
2023/05/03 05:51:51;;;;;;;1.63;1.23;;;18.30;49.20;;;;;;5042905;28;45771;-70
2023/05/03 05:54:18;;;;;;;2.88;1.10;;;18.30;49.30;;;;;;5042827;28;47581;-71
2023/05/03 05:56:45;;;;;;;3.35;1.20;;;18.40;49.10;;;;;;5042467;28;46457;-71
2023/05/03 05:59:13;;;;;;;2.97;1.10;;;18.30;48.80;;;;;;5043345;28;45161;-71
2023/05/03 06:01:43;;;;;;;1.80;1.13;;;18.30;48.70;;;;;;5042117;28;45362;-72
2023/05/03 06:04:10;;;;;;;1.55;1.08;;;18.30;48.60;;;;;;5042578;28;46482;-71
2023/05/03 06:06:36;;;;;;;1.67;1.15;;;18.40;48.70;;;;;;5042351;28;46545;-71
2023/05/03 06:09:03;;;;;;;1.48;1.20;;;18.30;48.50;;;;;;5043015;27;45319;-71
2023/05/03 06:11:30;;;;;;;2.92;1.38;;;18.30;48.40;;;;;;5043123;27;45595;-71
2023/05/03 06:13:57;;;;;;;2.17;1.08;;;18.30;48.30;;;;;;5042531;28;46291;-71
2023/05/03 06:16:26;;;;;;;3.80;1.20;;;18.30;48.50;;;;;;5042604;27;45298;-71
2023/05/03 06:18:52;;;;;;;1.85;1.20;;;18.30;48.40;;;;;;5042870;27;45338;-71
2023/05/03 06:21:19;;;;;;;4.38;1.42;;;18.30;48.40;;;;;;5042654;28;45655;-71
2023/05/03 06:23:46;;;;;;;2.47;1.15;;;18.30;48.60;;;;;;5042363;28;47058;-71
2023/05/03 06:26:13;;;;;;;1.50;1.00;;;18.30;48.80;;;;;;5041689;28;45406;-71
2023/05/03 06:28:39;;;;;;;1.60;0.90;;;18.40;49.00;;;;;;5042693;28;45210;-72
2023/05/03 06:31:06;;;;;;;3.35;1.20;;;18.40;49.00;;;;;;5042558;28;45598;-71
2023/05/03 06:33:34;;;;;;;2.40;1.05;;;18.40;49.20;;;;;;5042445;28;46992;-72
2023/05/03 06:36:01;;;;;;;3.08;1.20;;;18.40;49.10;;;;;;5042308;28;45390;-71
2023/05/03 06:38:28;;;;;;;2.30;1.33;;;18.40;49.20;;;;;;5042673;28;45359;-71
2023/05/03 06:40:55;;;;;;;2.20;1.20;;;18.40;49.00;;;;;;5042838;28;45394;-73
2023/05/03 06:43:22;;;;;;;2.35;1.30;;;18.30;48.90;;;;;;5042224;28;48125;-71
2023/05/03 06:45:52;;;;;;;1.52;1.10;;;18.40;49.00;;;;;;5041800;28;45494;-71
2023/05/03 06:48:20;;;;;;;1.90;1.10;;;18.40;49.00;;;;;;5042569;28;45310;-71
2023/05/03 06:50:48;;;;;;;1.48;1.02;;;18.40;48.90;;;;;;5042135;28;45437;-71
2023/05/03 06:53:15;;;;;;;1.17;1.00;;;18.40;48.90;;;;;;5042130;28;45278;-71
2023/05/03 06:55:43;;;;;;;3.15;1.40;;;18.40;48.90;;;;;;5041773;28;45315;-72
2023/05/03 06:58:10;;;;;;;1.48;1.10;;;18.40;48.90;;;;;;5042075;28;45368;-72
2023/05/03 07:00:38;;;;;;;2.30;1.45;;;18.40;49.10;;;;;;5042253;28;45431;-71
2023/05/03 07:03:05;;;;;;;1.52;1.00;;;18.30;48.80;;;;;;5042139;28;46557;-71
2023/05/03 07:05:32;;;;;;;2.28;0.93;;;18.40;48.90;;;;;;5041771;28;45330;-71
2023/05/03 07:08:00;;;;;;;3.13;1.10;;;18.40;49.00;;;;;;5042053;28;45339;-71
2023/05/03 07:10:29;;;;;;;2.28;1.02;;;18.40;49.10;;;;;;5042268;27;45426;-71
2023/05/03 07:12:56;;;;;;;1.48;1.10;;;18.40;49.20;;;;;;5042010;28;46365;-72
2023/05/03 07:15:22;;;;;;;3.00;1.10;;;18.40;49.40;;;;;;5023433;28;45229;-71
2023/05/03 07:17:49;;;;;;;2.03;1.10;;;18.40;49.20;;;;;;5037626;28;45204;-71
2023/05/03 07:20:16;;;;;;;2.13;1.25;;;18.40;49.40;;;;;;5042432;27;45595;-71
2023/05/03 07:22:43;;;;;;;2.08;1.05;;;18.40;49.50;;;;;;5041822;28;47514;-72
2023/05/03 07:25:13;;;;;;;2.58;1.17;;;18.40;49.50;;;;;;5041495;28;45463;-71
2023/05/03 07:27:40;;;;;;;2.80;1.55;;;18.40;49.30;;;;;;5042012;28;45236;-71
2023/05/03 07:30:08;;;;;;;1.90;0.98;;;18.40;49.10;;;;;;5041762;28;45612;-71
2023/05/03 07:32:35;;;;;;;1.55;0.90;;;18.40;49.00;;;;;;5041530;28;45435;-72
2023/05/03 07:35:02;;;;;;;1.67;0.95;;;18.40;49.00;;;;;;5041224;28;45381;-71
2023/05/03 07:37:29;;;;;;;2.95;1.17;;;18.40;49.00;;;;;;5041972;28;45268;-71
2023/05/03 07:39:55;;;;;;;1.67;0.90;;;18.40;49.00;;;;;;5041632;28;45556;-72
2023/05/03 07:42:24;;;;;;;1.60;1.10;;;18.40;49.00;;;;;;5041415;28;47373;-71
2023/05/03 07:44:50;;;;;;;2.50;1.13;;;18.40;49.00;;;;;;5040972;28;45412;-71
2023/05/03 07:47:17;;;;;;;3.08;0.90;;;18.40;49.00;;;;;;5041422;28;45326;-71
2023/05/03 07:49:44;;;;;;;1.88;0.90;;;18.40;48.90;;;;;;5041525;28;45402;-71
2023/05/03 07:52:11;;;;;;;1.33;0.90;;;18.40;49.20;;;;;;5039758;28;46951;-72
2023/05/03 07:54:37;;;;;;;1.75;0.90;;;18.50;49.50;;;;;;5041368;28;45282;-71
2023/05/03 07:57:05;;;;;;;1.75;1.10;;;18.50;49.40;;;;;;5041707;28;45507;-71
2023/05/03 07:59:33;;;;;;;1.55;1.00;;;18.50;49.60;;;;;;5041641;28;45281;-71
2023/05/03 08:02:00;;;;;;;1.98;1.10;;;18.50;49.30;;;;;;5041114;28;47843;-72
2023/05/03 08:04:27;;;;;;;2.83;0.85;;;18.50;49.60;;;;;;5041237;28;45731;-71
2023/05/03 08:06:53;;;;;;;0.70;0.70;;;18.50;49.60;;;;;;5041407;28;45267;-71
2023/05/03 08:09:20;;;;;;;1.10;0.60;;;18.50;49.20;;;;;;5041485;28;45347;-71
2023/05/03 08:11:47;;;;;;;1.33;0.90;;;18.50;49.10;;;;;;5039829;28;47399;-71
2023/05/03 08:14:14;;;;;;;1.20;0.82;;;18.50;49.00;;;;;;5040809;28;45270;-71
2023/05/03 08:16:42;;;;;;;2.65;0.93;;;18.50;49.20;;;;;;5041458;28;45269;-71
2023/05/03 08:19:08;;;;;;;1.02;0.80;;;18.50;48.90;;;;;;5041451;28;45296;-71
2023/05/03 08:21:35;;;;;;;1.75;0.90;;;18.50;48.90;;;;;;5041375;28;48705;-71
2023/05/03 08:24:04;;;;;;;2.03;0.93;;;18.50;48.80;;;;;;5041128;28;45215;-71
2023/05/03 08:26:31;;;;;;;1.00;0.60;;;18.50;48.70;;;;;;5041580;28;45405;-71
2023/05/03 08:28:59;;;;;;;1.20;0.82;;;18.50;48.80;;;;;;5041130;28;45595;-71
2023/05/03 08:31:25;;;;;;;3.60;0.98;;;18.50;48.90;;;;;;5040911;28;48653;-71
2023/05/03 08:33:54;;;;;;;1.73;0.70;;;18.50;48.80;;;;;;5040902;28;45358;-71
2023/05/03 08:36:20;;;;;;;0.98;0.70;;;18.50;48.80;;;;;;5041063;27;45200;-71
2023/05/03 08:38:47;;;;;;;1.92;0.88;;;18.50;49.20;;;;;;5035385;28;45441;-71
2023/05/03 08:41:24;;;;;;;2.58;0.82;;;18.50;49.20;;;;;;5040093;28;45333;-71
2023/05/03 08:43:53;;;;;;;0.73;0.63;;;18.50;49.20;;;;;;5041038;28;45515;-71
2023/05/03 08:46:20;;;;;;;2.50;0.90;;;18.50;49.20;;;;;;5039633;27;45342;-71
2023/05/03 08:48:48;;;;;;;1.70;0.70;;;18.50;49.30;;;;;;5040908;28;45382;-71
2023/05/03 08:51:17;;;;;;;2.30;0.90;;;18.50;49.10;;;;;;5038509;28;47328;-71
2023/05/03 08:53:44;;;;;;;0.80;0.60;;;18.50;49.00;;;;;;5040511;28;45284;-71
2023/05/03 08:56:12;;;;;;;0.93;0.70;;;18.50;48.80;;;;;;5039980;28;45491;-71
2023/05/03 08:58:39;;;;;;;1.52;0.77;;;18.50;48.80;;;;;;5040568;28;45376;-71
2023/05/03 09:01:07;;;;;;;1.70;0.77;;;18.50;48.80;;;;;;5040336;28;47764;-71
2023/05/03 09:03:35;;;;;;;1.17;0.60;;;18.50;48.50;;;;;;5040465;28;45239;-71
2023/05/03 09:06:02;;;;;;;1.00;0.55;;;18.50;48.70;;;;;;5040618;28;45294;-71
2023/05/03 09:08:31;;;;;;;1.73;0.63;;;18.50;48.70;;;;;;5040557;28;45507;-71
2023/05/03 09:10:58;;;;;;;2.10;1.20;;;18.50;48.70;;;;;;5040009;28;47315;-71
2023/05/03 09:13:31;;;;;;;2.40;0.82;;;18.50;48.50;;;;;;5040106;28;45200;-71
2023/05/03 09:15:58;;;;;;;3.05;0.82;;;18.50;48.20;;;;;;5037235;28;45264;-71
2023/05/03 09:18:25;;;;;;;1.25;0.65;;;18.50;48.50;;;;;;5040876;28;45250;-71
2023/05/03 09:20:52;;;;;;;2.85;0.63;;;18.50;48.50;;;;;;5040492;28;47147;-71
2023/05/03 09:23:29;;;;;;;1.48;0.73;;;18.50;49.10;;;;;;5042612;28;45689;-71
2023/05/03 09:25:58;;;;;;;1.65;0.85;;;18.50;48.80;;;;;;5043734;28;45461;-72
2023/05/03 09:28:25;;;;;;;0.40;0.40;;;18.50;48.90;;;;;;5043171;28;45326;-71
2023/05/03 09:31:04;;;;;;;1.38;0.60;;;18.50;48.90;;;;;;5042839;28;47921;-71
2023/05/03 09:33:31;;;;;;;0.98;0.57;;;18.50;48.80;;;;;;5043242;28;45347;-71
2023/05/03 09:36:00;;;;;;;1.00;0.65;;;18.60;48.80;;;;;;5043223;28;45255;-71
2023/05/03 09:38:28;;;;;;;0.88;0.70;;;18.60;48.60;;;;;;5043246;28;45192;-71
2023/05/03 09:40:54;;;;;;;1.40;0.60;;;18.60;48.50;;;;;;5043337;28;47214;-71
2023/05/03 09:43:23;;;;;;;3.42;0.77;;;18.50;48.50;;;;;;5034866;28;45260;-71
2023/05/03 09:45:49;;;;;;;1.55;0.63;;;18.50;48.40;;;;;;5042264;28;45264;-71
2023/05/03 09:48:19;;;;;;;1.00;0.57;;;18.50;48.30;;;;;;5043078;28;45735;-71
2023/05/03 09:50:46;;;;;;;2.17;0.90;;;18.50;48.30;;;;;;5042374;28;46529;-71
2023/05/03 09:53:17;;;;;;;1.10;0.60;;;18.50;48.30;;;;;;5042727;28;45848;-71
2023/05/03 09:55:44;;;;;;;1.55;0.65;;;18.50;48.40;;;;;;5042798;28;45406;-71
2023/05/03 09:58:11;;;;;;;0.90;0.65;;;18.50;48.10;;;;;;5043454;28;45308;-72
2023/05/03 10:00:41;;;;;;;2.90;1.00;;;18.50;48.20;;;;;;5042966;28;47426;-71
2023/05/03 10:03:10;;;;;;;0.90;0.52;;;18.50;48.50;;;;;;5042798;28;45350;-71
2023/05/03 10:05:43;;;;;;;0.73;0.63;;;18.60;48.70;;;;;;5042489;28;45386;-71
2023/05/03 10:08:12;;;;;;;0.82;0.60;;;18.60;48.70;;;;;;5043200;28;45577;-71
2023/05/03 10:10:43;;;;;;;0.65;0.50;;;18.60;48.60;;;;;;5043148;28;47171;-71
2023/05/03 10:13:11;;;;;;;0.80;0.43;;;18.60;48.70;;;;;;5042693;28;45408;-71
2023/05/03 10:15:42;;;;;;;0.93;0.60;;;18.60;48.70;;;;;;5042681;28;45429;-71
2023/05/03 10:18:13;;;;;;;0.80;0.60;;;18.60;48.60;;;;;;5042748;28;45538;-71
2023/05/03 10:20:44;;;;;;;1.38;0.70;;;18.60;48.40;;;;;;5042811;28;48699;-71
2023/05/03 10:23:12;;;;;;;1.60;0.80;;;18.60;48.20;;;;;;5042432;28;45317;-71
2023/05/03 10:26:00;;;;;;;2.72;0.70;;;18.60;48.30;;;;;;5042233;28;45293;-71
2023/05/03 10:28:27;;;;;;;1.20;0.70;;;18.60;48.50;;;;;;5042352;28;45209;-71
2023/05/03 10:30:55;;;;;;;0.80;0.60;;;18.60;48.30;;;;;;5042127;28;46404;-71
2023/05/03 10:33:33;;;;;;;1.63;0.68;;;18.60;48.30;;;;;;5041273;28;45426;-71
2023/05/03 10:36:05;;;;;;;0.77;0.65;;;18.60;48.30;;;;;;5042508;27;45273;-71
2023/05/03 10:38:32;;;;;;;1.45;0.88;;;18.60;48.20;;;;;;5042646;28;45508;-71
2023/05/03 10:41:02;;;;;;;1.30;0.63;;;18.60;48.00;;;;;;5042563;28;47056;-71
2023/05/03 10:43:42;;;;;;;1.05;0.80;;;18.60;48.10;;;;;;5042413;28;45363;-71
2023/05/03 10:46:32;;;;;;;0.98;0.63;;;18.60;48.40;;;;;;5041399;28;45535;-71
2023/05/03 10:49:25;;;;;;;1.30;0.80;;;18.60;48.60;;;;;;5042507;28;45560;-71
2023/05/03 10:51:52;;;;;;;3.35;0.88;;;18.60;48.60;;;;;;5032170;28;47113;-71
2023/05/03 10:54:18;;;;;;;1.42;0.65;;;18.60;48.50;;;;;;5042015;28;45231;-72
2023/05/03 10:56:50;;;;;;;1.90;0.68;;;18.60;48.30;;;;;;5041747;28;45358;-71
2023/05/03 10:59:17;;;;;;;1.45;0.73;;;18.60;48.20;;;;;;5042038;28;45586;-71
2023/05/03 11:01:46;;;;;;;2.40;0.68;;;18.60;48.30;;;;;;5040486;27;46373;-71
2023/05/03 11:04:21;;;;;;;1.95;0.68;;;18.60;48.00;;;;;;5041819;28;45432;-71
2023/05/03 11:06:50;;;;;;;2.22;0.75;;;18.60;47.70;;;;;;5042069;28;45242;-71
2023/05/03 11:09:17;;;;;;;1.60;0.68;;;18.60;47.90;;;;;;5041977;27;45523;-71
2023/05/03 11:11:44;;;;;;;1.17;0.82;;;18.60;47.50;;;;;;5036766;28;47249;-71
2023/05/03 11:14:12;;;;;;;1.17;0.70;;;18.60;47.60;;;;;;5040147;28;45325;-71
2023/05/03 11:16:46;;;;;;;0.88;0.60;;;18.60;47.80;;;;;;5041362;28;45492;-71
2023/05/03 11:19:15;;;;;;;1.17;0.80;;;18.60;47.90;;;;;;5042003;27;45306;-71
2023/05/03 11:21:42;;;;;;;1.35;0.77;;;18.60;48.10;;;;;;5041680;28;48144;-71
2023/05/03 11:24:10;;;;;;;2.08;0.80;;;18.60;48.10;;;;;;5041698;28;46330;-71
2023/05/03 11:26:37;;;;;;;0.80;0.65;;;18.60;48.30;;;;;;5041606;28;45391;-71
2023/05/03 11:29:03;;;;;;;1.17;0.65;;;18.60;48.30;;;;;;5041901;28;45341;-71
2023/05/03 11:31:31;;;;;;;0.98;0.50;;;18.60;48.40;;;;;;5041640;28;47751;-71
2023/05/03 11:33:58;;;;;;;1.95;0.60;;;18.60;48.10;;;;;;5041949;28;45216;-71
2023/05/03 11:36:29;;;;;;;1.75;0.77;;;18.60;48.00;;;;;;5041427;28;45405;-71
2023/05/03 11:38:56;;;;;;;1.27;0.73;;;18.60;48.00;;;;;;5042522;28;45517;-71
2023/05/03 11:41:22;;;;;;;1.10;0.70;;;18.60;48.20;;;;;;5041711;28;48406;-71
2023/05/03 11:43:50;;;;;;;2.33;0.50;;;18.60;48.10;;;;;;5041365;28;45365;-71
2023/05/03 11:46:20;;;;;;;0.52;0.52;;;18.60;47.90;;;;;;5040712;28;45268;-71
2023/05/03 11:48:47;;;;;;;1.08;0.70;;;18.60;47.80;;;;;;5042030;28;45455;-71
2023/05/03 11:51:15;;;;;;;1.58;0.65;;;18.70;47.80;;;;;;5041507;28;45226;-71
2023/05/03 11:53:47;;;;;;;1.20;0.63;;;18.60;47.50;;;;;;5041461;28;45354;-70
2023/05/03 11:56:16;;;;;;;1.45;0.82;;;18.60;47.60;;;;;;5041998;28;45437;-71
2023/05/03 11:58:55;;;;;;;1.02;0.80;;;18.60;47.80;;;;;;5041844;28;45310;-71
2023/05/03 12:01:23;;;;;;;1.35;0.60;;;18.60;47.60;;;;;;5035039;28;45317;-71
2023/05/03 12:03:54;;;;;;;0.93;0.70;;;18.60;47.70;;;;;;5040124;28;45487;-71
2023/05/03 12:06:21;;;;;;;1.33;0.70;;;18.60;47.70;;;;;;5038672;28;45285;-71
2023/05/03 12:08:49;;;;;;;0.80;0.50;;;18.60;47.60;;;;;;5041902;28;45575;-71
2023/05/03 12:11:16;;;;;;;0.88;0.50;;;18.60;47.70;;;;;;5041359;28;48028;-71
2023/05/03 12:13:43;;;;;;;0.63;0.57;;;18.60;48.10;;;;;;5040876;28;45283;-71
2023/05/03 12:16:13;;;;;;;1.65;0.50;;;18.70;48.10;;;;;;5041350;28;45293;-71
2023/05/03 12:18:49;;;;;;;0.70;0.60;;;18.70;48.20;;;;;;5041435;28;45423;-71
2023/05/03 12:21:16;;;;;;;0.93;0.50;;;18.70;48.10;;;;;;5040983;28;47310;-71
2023/05/03 12:23:43;;;;;;;0.93;0.75;;;18.70;48.10;;;;;;5041225;28;45269;-71
2023/05/03 12:26:11;;;;;;;0.43;0.40;;;18.70;47.90;;;;;;5041157;27;45359;-71
2023/05/03 12:28:38;;;;;;;0.70;0.63;;;18.70;48.10;;;;;;5041251;28;45497;-71
2023/05/03 12:31:05;;;;;;;1.30;0.50;;;18.70;48.00;;;;;;5041374;28;48092;-71
2023/05/03 12:33:33;;;;;;;1.35;0.73;;;18.70;47.60;;;;;;5040935;28;45387;-71
2023/05/03 12:36:01;;;;;;;1.48;0.70;;;18.70;47.70;;;;;;5041321;28;45326;-71
2023/05/03 12:38:27;;;;;;;1.15;0.70;;;18.70;47.90;;;;;;5034052;28;45354;-71
2023/05/03 12:40:54;;;;;;;1.08;0.75;;;18.60;48.00;;;;;;5041035;28;47255;-71
2023/05/03 12:43:22;;;;;;;1.10;0.70;;;18.70;48.00;;;;;;5040707;28;45638;-71
2023/05/03 12:45:49;;;;;;;0.75;0.75;;;18.60;48.00;;;;;;5040305;28;45352;-71
2023/05/03 12:48:16;;;;;;;4.40;0.77;;;18.60;47.80;;;;;;5040764;28;45181;-71
2023/05/03 12:50:43;;;;;;;0.70;0.70;;;18.70;47.90;;;;;;5040165;28;46647;-71
2023/05/03 12:53:10;;;;;;;0.60;0.60;;;18.70;48.00;;;;;;5040549;28;45341;-71